Time;durP1;ratioP1;P1;durP2;ratioP2;P2;SDS_P1;SDS_P2;PMS_P1;PMS_P2;Temp;Humidity;BMP_temperature;BMP_pressure;BME280_temperature;BME280_humidity;BME280_pressure;Samples;Min_cycle;Max_cycle;Signal;HPM_P1;HPM_P2
2023/07/31 00:01:27;;;;;;;4.30;2.00;;;;;;;17.30;50.85;100762.94;5053080;28;20045;-72
2023/07/31 00:03:55;;;;;;;3.83;2.30;;;;;;;17.31;50.41;100768.31;5066781;28;20139;-72
2023/07/31 00:06:23;;;;;;;5.90;2.10;;;;;;;17.31;50.54;100765.53;5071288;28;20404;-73
2023/07/31 00:08:51;;;;;;;5.47;2.15;;;;;;;17.32;50.53;100755.31;5073367;28;20158;-73
2023/07/31 00:11:20;;;;;;;4.30;2.15;;;;;;;17.34;50.41;100767.91;5075523;28;20119;-73
2023/07/31 00:13:48;;;;;;;4.15;2.38;;;;;;;17.32;50.42;100767.22;5074171;28;20075;-72
2023/07/31 00:16:16;;;;;;;4.55;2.20;;;;;;;17.31;50.87;100765.53;5070153;28;20464;-72
2023/07/31 00:18:44;;;;;;;4.68;2.20;;;;;;;17.32;50.77;100770.00;5070324;28;20446;-72
2023/07/31 00:21:12;;;;;;;5.93;2.47;;;;;;;17.31;50.75;100757.22;5084861;28;20809;-73
2023/07/31 00:23:40;;;;;;;5.22;2.25;;;;;;;17.32;50.47;100769.13;5058303;28;20036;-73
2023/07/31 00:26:08;;;;;;;4.82;2.08;;;;;;;17.31;50.83;100761.91;5075297;28;20040;-73
2023/07/31 00:28:37;;;;;;;3.80;2.00;;;;;;;17.33;50.58;100768.09;5057586;28;20048;-73
2023/07/31 00:31:05;;;;;;;5.57;2.30;;;;;;;17.32;50.59;100769.13;5057924;28;20365;-72
2023/07/31 00:33:35;;;;;;;5.00;2.20;;;;;;;17.32;50.46;100769.13;5078621;28;20044;-73
2023/07/31 00:36:04;;;;;;;7.28;2.58;;;;;;;17.33;50.24;100773.63;5056621;28;20037;-73
2023/07/31 00:38:32;;;;;;;5.72;2.20;;;;;;;17.33;50.52;100762.56;5059454;28;20044;-73
2023/07/31 00:41:00;;;;;;;4.40;2.13;;;;;;;17.32;50.49;100760.84;5054832;28;20093;-72
2023/07/31 00:43:27;;;;;;;3.75;2.22;;;;;;;17.31;50.28;100760.00;5076908;28;20392;-72
2023/07/31 00:45:57;;;;;;;4.57;2.20;;;;;;;17.33;50.78;100766.19;5077740;28;20423;-72
2023/07/31 00:48:26;;;;;;;5.25;2.50;;;;;;;17.30;50.97;100765.72;5065950;28;20414;-72
2023/07/31 00:50:54;;;;;;;4.90;2.30;;;;;;;17.31;50.35;100760.00;5075873;28;20109;-72
2023/07/31 00:53:22;;;;;;;6.00;2.60;;;;;;;17.31;50.29;100760.00;5076250;28;20559;-73
2023/07/31 00:55:50;;;;;;;4.72;2.03;;;;;;;17.30;50.34;100755.50;5053474;28;20113;-72
2023/07/31 00:58:18;;;;;;;4.35;2.20;;;;;;;17.30;50.67;100752.75;5048038;28;20091;-72
2023/07/31 01:00:46;;;;;;;4.28;2.22;;;;;;;17.30;50.38;100758.28;5068366;28;20173;-72
2023/07/31 01:03:15;;;;;;;6.20;2.30;;;;;;;17.32;50.36;100752.53;5059000;28;20460;-72
2023/07/31 01:05:55;;;;;;;4.85;2.22;;;;;;;17.33;50.47;100755.13;5051830;28;20510;-72
2023/07/31 01:08:29;;;;;;;5.60;2.38;;;;;;;17.32;50.24;100741.47;5075444;28;20384;-72
2023/07/31 01:11:03;;;;;;;4.97;2.15;;;;;;;17.32;50.90;100742.34;5072329;28;20040;-72
2023/07/31 01:13:31;;;;;;;4.72;2.20;;;;;;;17.30;50.15;100741.69;5068534;28;20672;-72
2023/07/31 01:15:59;;;;;;;5.05;2.05;;;;;;;17.30;50.73;100738.06;5068239;28;20045;-72
2023/07/31 01:18:28;;;;;;;5.78;2.35;;;;;;;17.31;50.38;100740.63;5055358;28;20135;-73
2023/07/31 01:21:10;;;;;;;4.18;2.17;;;;;;;17.33;50.52;100741.28;5052195;28;20044;-72
2023/07/31 01:24:05;;;;;;;3.95;2.15;;;;;;;17.31;50.81;100742.53;5056694;28;20041;-72
2023/07/31 01:26:37;;;;;;;4.72;2.10;;;;;;;17.31;50.31;100742.53;5070911;28;20041;-72
2023/07/31 01:29:15;;;;;;;4.55;2.25;;;;;;;17.32;50.22;100734.03;5062989;28;20048;-72
2023/07/31 01:31:45;;;;;;;4.32;2.10;;;;;;;17.29;50.47;100733.56;5049300;28;20052;-72
2023/07/31 01:34:14;;;;;;;4.55;2.40;;;;;;;17.31;50.25;100742.53;5070028;28;20076;-72
2023/07/31 01:36:43;;;;;;;4.53;2.20;;;;;;;17.29;49.88;100741.84;5050567;28;20032;-72
2023/07/31 01:39:11;;;;;;;5.97;2.40;;;;;;;17.29;50.20;100733.56;5070018;28;20048;-72
2023/07/31 01:41:40;;;;;;;5.80;2.50;;;;;;;17.30;50.22;100733.38;5055565;28;20101;-72
2023/07/31 01:44:08;;;;;;;5.05;2.30;;;;;;;17.30;50.23;100747.22;5068736;28;20132;-72
2023/07/31 01:46:36;;;;;;;5.82;2.40;;;;;;;17.29;50.03;100742.72;5063849;22;20063;-71
2023/07/31 01:49:05;;;;;;;5.05;2.75;;;;;;;17.29;49.87;100739.94;5059235;28;20043;-70
2023/07/31 01:51:33;;;;;;;4.38;1.90;;;;;;;17.28;49.93;100732.69;5062876;28;20090;-71
2023/07/31 01:54:02;;;;;;;5.55;2.10;;;;;;;17.29;49.70;100728.03;5061924;28;20032;-71
2023/07/31 01:56:30;;;;;;;5.60;2.58;;;;;;;17.28;50.10;100734.59;5083028;28;20048;-70
2023/07/31 01:58:59;;;;;;;5.35;2.42;;;;;;;17.30;49.40;100732.53;5077041;28;20043;-71
2023/07/31 02:01:27;;;;;;;4.20;2.20;;;;;;;17.28;49.60;100731.81;5080499;28;20558;-71
2023/07/31 02:03:55;;;;;;;5.25;2.33;;;;;;;17.28;49.39;100738.22;5073512;28;20477;-70
2023/07/31 02:06:23;;;;;;;5.05;2.30;;;;;;;17.27;49.76;100733.72;5082576;28;20044;-71
2023/07/31 02:08:51;;;;;;;5.78;2.38;;;;;;;17.28;49.92;100726.28;5079024;28;20453;-71
2023/07/31 02:11:19;;;;;;;5.07;2.55;;;;;;;17.27;49.65;100728.19;5082572;28;20468;-70
2023/07/31 02:13:50;;;;;;;5.65;2.40;;;;;;;17.27;49.52;100722.66;5082236;28;20048;-70
2023/07/31 02:16:19;;;;;;;5.90;2.20;;;;;;;17.28;49.76;100720.75;5075254;28;20360;-70
2023/07/31 02:18:47;;;;;;;4.90;2.17;;;;;;;17.26;49.62;100720.94;5082093;28;20083;-70
2023/07/31 02:21:15;;;;;;;4.95;2.35;;;;;;;17.28;49.86;100718.00;5082504;28;20052;-71
2023/07/31 02:23:43;;;;;;;4.95;2.10;;;;;;;17.28;49.67;100713.34;5084971;28;20210;-71
2023/07/31 02:26:11;;;;;;;6.78;2.60;;;;;;;17.28;50.04;100716.09;5082251;28;20036;-71
2023/07/31 02:28:42;;;;;;;5.32;2.38;;;;;;;17.29;50.04;100705.91;5084758;28;20532;-71
2023/07/31 02:31:12;;;;;;;5.18;2.38;;;;;;;17.27;50.14;100707.97;5077358;28;20394;-71
2023/07/31 02:33:41;;;;;;;6.07;2.53;;;;;;;17.31;49.55;100704.69;5078704;28;20109;-71
2023/07/31 02:36:10;;;;;;;5.88;2.47;;;;;;;17.30;50.19;100719.56;5078372;28;20066;-70
2023/07/31 02:38:38;;;;;;;5.03;2.38;;;;;;;17.30;50.05;100704.84;5078570;28;20576;-71
2023/07/31 02:41:06;;;;;;;5.28;2.38;;;;;;;17.30;50.12;100702.09;5080080;28;20044;-71
2023/07/31 02:43:34;;;;;;;5.90;2.28;;;;;;;17.30;50.05;100696.56;5077837;28;20048;-70
2023/07/31 02:46:02;;;;;;;4.72;2.35;;;;;;;17.31;49.80;100701.06;5085417;28;20131;-70
2023/07/31 02:48:30;;;;;;;5.10;2.30;;;;;;;17.31;50.22;100693.63;5086244;28;20376;-71
2023/07/31 02:50:59;;;;;;;5.68;2.25;;;;;;;17.34;49.82;100689.59;5086446;28;20339;-71
2023/07/31 02:53:27;;;;;;;5.00;2.38;;;;;;;17.32;50.33;100686.16;5075162;28;20392;-71
2023/07/31 02:55:55;;;;;;;4.45;2.28;;;;;;;17.32;50.10;100697.22;5079804;28;20064;-70
2023/07/31 02:58:23;;;;;;;5.78;2.60;;;;;;;17.32;50.20;100687.00;5094277;28;20045;-71
2023/07/31 03:00:51;;;;;;;4.93;2.17;;;;;;;17.33;50.34;100687.88;5075470;28;20664;-70
2023/07/31 03:03:19;;;;;;;5.32;2.60;;;;;;;17.33;50.26;100683.19;5075235;28;20123;-71
2023/07/31 03:05:47;;;;;;;4.10;2.42;;;;;;;17.33;50.27;100683.19;5080858;28;20044;-70
2023/07/31 03:08:16;;;;;;;5.95;2.33;;;;;;;17.36;50.06;100685.63;5087232;28;20051;-70
2023/07/31 03:10:44;;;;;;;4.90;2.53;;;;;;;17.35;50.47;100683.88;5079742;28;20500;-70
2023/07/31 03:13:12;;;;;;;5.05;2.10;;;;;;;17.36;50.38;100687.53;5079287;28;20120;-70
2023/07/31 03:15:43;;;;;;;5.35;2.47;;;;;;;17.39;50.63;100679.72;5076762;28;20135;-71
2023/07/31 03:18:11;;;;;;;4.53;1.98;;;;;;;17.36;50.24;100682.84;5075978;28;20054;-71
2023/07/31 03:20:43;;;;;;;5.63;2.13;;;;;;;17.40;50.56;100680.59;5083678;28;20039;-71
2023/07/31 03:23:11;;;;;;;4.50;2.38;;;;;;;17.35;50.62;100681.13;5081698;28;20044;-69
2023/07/31 03:25:42;;;;;;;4.90;2.38;;;;;;;17.39;50.58;100679.72;5075111;28;20067;-72
2023/07/31 03:28:10;;;;;;;5.15;2.65;;;;;;;17.38;50.39;100686.31;5086528;28;20036;-71
2023/07/31 03:30:38;;;;;;;7.38;2.25;;;;;;;17.38;50.56;100690.97;5085761;28;20039;-71
2023/07/31 03:33:06;;;;;;;5.18;2.50;;;;;;;17.39;50.36;100685.25;5086780;28;20052;-72
2023/07/31 03:35:34;;;;;;;3.92;2.30;;;;;;;17.39;50.47;100679.72;5086761;28;20058;-71
2023/07/31 03:38:02;;;;;;;4.50;2.20;;;;;;;17.39;50.35;100676.97;5086461;28;20032;-71
2023/07/31 03:40:30;;;;;;;4.90;2.13;;;;;;;17.39;50.43;100679.72;5084702;28;20054;-72
2023/07/31 03:43:00;;;;;;;6.28;2.55;;;;;;;17.42;50.11;100681.25;5078081;28;20127;-71
2023/07/31 03:45:28;;;;;;;6.10;2.80;;;;;;;17.39;50.11;100667.81;5086351;28;20101;-71
2023/07/31 03:47:56;;;;;;;4.25;2.50;;;;;;;17.39;50.01;100668.66;5081165;28;21240;-71
2023/07/31 03:50:26;;;;;;;4.55;2.22;;;;;;;17.39;50.54;100668.66;5078632;28;20127;-71
2023/07/31 03:52:54;;;;;;;4.07;2.30;;;;;;;17.39;50.63;100668.66;5086822;28;20363;-71
2023/07/31 03:55:22;;;;;;;5.63;2.25;;;;;;;17.40;50.09;100673.13;5085666;28;20130;-71
2023/07/31 03:57:50;;;;;;;4.63;2.45;;;;;;;17.40;50.57;100667.59;5082076;28;20524;-71
2023/07/31 04:00:22;;;;;;;5.03;2.20;;;;;;;17.44;50.20;100664.47;5079575;28;20051;-72
2023/07/31 04:02:50;;;;;;;5.40;2.53;;;;;;;17.41;50.67;100654.63;5088664;28;20119;-71
2023/07/31 04:05:17;;;;;;;5.65;2.50;;;;;;;17.42;50.78;100655.47;5077282;28;20044;-71
2023/07/31 04:07:45;;;;;;;6.43;2.65;;;;;;;17.43;50.90;100654.44;5086979;28;20040;-71
2023/07/31 04:10:13;;;;;;;4.47;2.30;;;;;;;17.43;50.79;100658.06;5081115;28;20044;-72
2023/07/31 04:12:41;;;;;;;4.55;2.28;;;;;;;17.44;51.01;100654.25;5077982;28;20059;-71
2023/07/31 04:15:10;;;;;;;5.88;2.40;;;;;;;17.46;50.48;100662.38;5080697;28;20040;-71
2023/07/31 04:17:39;;;;;;;4.68;2.40;;;;;;;17.47;50.38;100659.44;5085688;28;20398;-72
2023/07/31 04:20:08;;;;;;;5.22;2.47;;;;;;;17.46;50.83;100654.94;5084273;28;20063;-71
2023/07/31 04:22:36;;;;;;;4.10;2.20;;;;;;;17.47;51.12;100653.06;5082717;28;20128;-72
2023/07/31 04:25:04;;;;;;;5.25;2.67;;;;;;;17.48;50.75;100649.25;5080164;28;20036;-70
2023/07/31 04:27:32;;;;;;;4.57;2.40;;;;;;;17.47;50.87;100648.38;5084856;28;20044;-70
2023/07/31 04:30:00;;;;;;;6.35;2.40;;;;;;;17.48;50.74;100643.72;5082610;28;20064;-70
2023/07/31 04:32:29;;;;;;;5.38;2.70;;;;;;;17.48;50.68;100635.41;5081407;28;20043;-71
2023/07/31 04:34:58;;;;;;;5.53;2.53;;;;;;;17.50;50.86;100633.28;5087803;28;20263;-70
2023/07/31 04:37:26;;;;;;;5.03;2.22;;;;;;;17.48;51.12;100632.63;5080114;28;20206;-70
2023/07/31 04:39:54;;;;;;;4.65;2.30;;;;;;;17.47;51.41;100631.78;5084288;28;20124;-70
2023/07/31 04:42:23;;;;;;;6.18;2.33;;;;;;;17.48;51.38;100630.72;5072925;28;20052;-72
2023/07/31 04:44:52;;;;;;;5.03;2.35;;;;;;;17.49;51.32;100628.81;5080287;28;20068;-70
2023/07/31 04:47:20;;;;;;;5.00;2.85;;;;;;;17.48;50.76;100633.50;5085707;28;20381;-69
2023/07/31 04:49:48;;;;;;;6.22;2.60;;;;;;;17.48;50.94;100621.56;5087037;28;20040;-70
2023/07/31 04:52:18;;;;;;;4.43;2.45;;;;;;;17.50;51.10;100622.22;5085098;28;20506;-70
2023/07/31 04:54:46;;;;;;;4.97;2.70;;;;;;;17.48;51.31;100622.44;5086387;28;20514;-70
2023/07/31 04:57:14;;;;;;;5.20;2.45;;;;;;;17.49;51.00;100620.50;5083126;28;20040;-70
2023/07/31 04:59:41;;;;;;;5.15;2.42;;;;;;;17.49;51.15;100620.50;5086085;28;20478;-70
2023/07/31 05:02:13;;;;;;;5.97;3.03;;;;;;;17.50;51.50;100603.72;5084179;28;20032;-70
2023/07/31 05:04:41;;;;;;;4.82;2.65;;;;;;;17.50;51.30;100600.09;5083490;28;20044;-71
2023/07/31 05:07:09;;;;;;;5.35;2.80;;;;;;;17.51;51.23;100601.81;5085815;28;20052;-70
2023/07/31 05:09:39;;;;;;;5.18;2.83;;;;;;;17.52;51.71;100598.88;5083563;28;20036;-69
2023/07/31 05:12:07;;;;;;;4.22;2.60;;;;;;;17.51;51.81;100599.91;5083266;28;20131;-70
2023/07/31 05:14:35;;;;;;;4.53;2.33;;;;;;;17.52;51.21;100596.09;5083369;28;20407;-69
2023/07/31 05:17:03;;;;;;;4.85;2.35;;;;;;;17.52;51.42;100587.78;5085987;28;20054;-69
2023/07/31 05:19:31;;;;;;;4.95;2.83;;;;;;;17.54;51.77;100591.25;5085193;28;20055;-70
2023/07/31 05:21:59;;;;;;;4.00;2.47;;;;;;;17.54;51.71;100582.94;5083920;28;20047;-70
2023/07/31 05:24:27;;;;;;;5.50;2.60;;;;;;;17.55;51.59;100581.91;5090845;28;20048;-71
2023/07/31 05:26:56;;;;;;;4.47;2.50;;;;;;;17.58;51.64;100584.28;5075977;28;20495;-71
2023/07/31 05:29:24;;;;;;;5.32;3.35;;;;;;;17.58;51.24;100583.41;5085884;28;20048;-69
2023/07/31 05:31:52;;;;;;;4.32;2.60;;;;;;;17.59;51.40;100579.59;5080262;28;20040;-69
2023/07/31 05:34:20;;;;;;;4.57;2.50;;;;;;;17.60;51.24;100564.72;5085300;28;20054;-70
2023/07/31 05:36:48;;;;;;;4.65;2.58;;;;;;;17.60;51.64;100567.50;5082443;28;20075;-70
2023/07/31 05:39:16;;;;;;;4.82;2.55;;;;;;;17.61;51.05;100556.25;5070190;28;20123;-70
2023/07/31 05:41:43;;;;;;;4.30;2.80;;;;;;;17.63;51.54;100564.38;5086328;28;20123;-70
2023/07/31 05:44:13;;;;;;;5.82;2.78;;;;;;;17.64;51.29;100549.47;5081213;28;20134;-70
2023/07/31 05:46:41;;;;;;;4.25;2.30;;;;;;;17.63;51.44;100545.84;5086631;28;20071;-70
2023/07/31 05:49:10;;;;;;;5.05;2.67;;;;;;;17.64;51.48;100555.03;5086803;28;20070;-70
2023/07/31 05:51:38;;;;;;;4.38;2.60;;;;;;;17.63;50.91;100551.38;5077786;28;20147;-71
2023/07/31 05:54:05;;;;;;;4.25;2.65;;;;;;;17.64;51.09;100547.56;5087438;28;20868;-72
2023/07/31 05:56:34;;;;;;;5.70;2.88;;;;;;;17.64;50.99;100550.34;5086759;28;20521;-70
2023/07/31 05:59:02;;;;;;;5.55;2.88;;;;;;;17.65;51.17;100552.03;5084600;28;20040;-70
2023/07/31 06:01:32;;;;;;;5.40;2.60;;;;;;;17.67;50.89;100549.94;5084494;28;20101;-70
2023/07/31 06:03:59;;;;;;;5.28;3.00;;;;;;;17.67;50.96;100554.63;5083792;28;20161;-70
2023/07/31 06:06:28;;;;;;;5.57;2.42;;;;;;;17.67;51.29;100554.63;5087160;28;20032;-71
2023/07/31 06:08:55;;;;;;;4.00;2.42;;;;;;;17.67;51.15;100552.72;5082702;28;20051;-70
2023/07/31 06:11:23;;;;;;;5.10;2.70;;;;;;;17.67;51.29;100551.84;5086825;28;20063;-71
2023/07/31 06:13:51;;;;;;;5.38;2.83;;;;;;;17.67;51.35;100558.25;5080786;28;20127;-70
2023/07/31 06:16:19;;;;;;;5.20;2.90;;;;;;;17.67;50.95;100557.38;5083401;28;20058;-71
2023/07/31 06:18:48;;;;;;;6.13;3.00;;;;;;;17.68;51.11;100554.44;5074319;28;20044;-71
2023/07/31 06:21:16;;;;;;;5.38;2.60;;;;;;;17.67;50.94;100557.38;5078369;28;20095;-71
2023/07/31 06:23:44;;;;;;;5.38;2.63;;;;;;;17.66;51.47;100551.00;5085384;28;20098;-71
2023/07/31 06:26:12;;;;;;;6.20;2.80;;;;;;;17.65;51.64;100551.16;5085149;28;20062;-71
2023/07/31 06:28:40;;;;;;;4.65;2.78;;;;;;;17.66;51.42;100559.28;5077400;28;20048;-71
2023/07/31 06:31:08;;;;;;;5.82;2.88;;;;;;;17.65;51.86;100545.63;5072192;28;20052;-73
2023/07/31 06:33:36;;;;;;;5.85;2.72;;;;;;;17.64;51.91;100544.81;5075043;28;20066;-72
2023/07/31 06:36:06;;;;;;;5.47;2.92;;;;;;;17.65;51.79;100554.81;5074978;28;20119;-72
2023/07/31 06:38:34;;;;;;;4.28;2.70;;;;;;;17.62;51.79;100552.44;5090635;28;20028;-72
2023/07/31 06:41:02;;;;;;;5.50;2.40;;;;;;;17.61;51.78;100552.63;5083303;28;20040;-72
2023/07/31 06:43:30;;;;;;;4.18;2.40;;;;;;;17.59;51.62;100558.31;5082251;28;20064;-72
2023/07/31 06:45:58;;;;;;;5.20;2.60;;;;;;;17.57;52.01;100546.59;5077464;28;20050;-72
2023/07/31 06:48:26;;;;;;;5.40;2.35;;;;;;;17.57;51.81;100551.25;5079017;28;20044;-71
2023/07/31 06:50:53;;;;;;;4.57;2.30;;;;;;;17.55;52.03;100548.69;5085438;28;20475;-72
2023/07/31 06:53:23;;;;;;;4.85;2.30;;;;;;;17.56;52.30;100546.78;5085215;28;20059;-72
2023/07/31 06:55:51;;;;;;;3.97;2.28;;;;;;;17.53;52.29;100548.03;5080894;28;20040;-72
2023/07/31 06:58:19;;;;;;;4.07;2.65;;;;;;;17.52;52.12;100549.06;5077642;28;20048;-72
2023/07/31 07:00:49;;;;;;;4.35;2.50;;;;;;;17.52;52.55;100546.28;5082244;28;20126;-72
2023/07/31 07:03:17;;;;;;;4.43;2.38;;;;;;;17.54;52.06;100548.88;5083570;28;20578;-73
2023/07/31 07:05:45;;;;;;;4.97;2.33;;;;;;;17.51;52.52;100550.09;5089029;28;20079;-72
2023/07/31 07:08:13;;;;;;;4.70;2.40;;;;;;;17.52;52.55;100550.97;5081274;28;20531;-72
2023/07/31 07:10:42;;;;;;;5.38;2.95;;;;;;;17.53;52.46;100548.03;5074179;28;20040;-72
2023/07/31 07:13:10;;;;;;;4.57;2.60;;;;;;;17.52;52.41;100550.97;5082955;28;20078;-73
2023/07/31 07:15:38;;;;;;;4.70;2.58;;;;;;;17.52;51.99;100540.75;5084044;28;20943;-72
2023/07/31 07:18:06;;;;;;;4.95;2.50;;;;;;;17.51;52.31;100543.72;5086789;28;20040;-72
2023/07/31 07:20:34;;;;;;;5.07;2.15;;;;;;;17.51;52.08;100538.19;5088404;28;20097;-73
2023/07/31 07:23:02;;;;;;;3.58;2.30;;;;;;;17.50;52.51;100539.22;5100014;28;20051;-72
2023/07/31 07:25:30;;;;;;;4.78;2.13;;;;;;;17.50;52.31;100534.53;5086173;28;20139;-72
2023/07/31 07:27:59;;;;;;;2.95;1.85;;;;;;;17.51;52.56;100536.28;5083741;28;20137;-72
2023/07/31 07:30:27;;;;;;;5.00;2.58;;;;;;;17.48;52.66;100533.91;5079909;28;20058;-72
2023/07/31 07:32:55;;;;;;;4.85;2.10;;;;;;;17.49;52.49;100534.72;5088179;28;20067;-72
2023/07/31 07:35:23;;;;;;;4.15;2.05;;;;;;;17.49;52.33;100540.25;5086573;28;20054;-72
2023/07/31 07:37:51;;;;;;;4.60;2.45;;;;;;;17.47;52.48;100532.19;5083111;28;20127;-73
2023/07/31 07:40:20;;;;;;;4.43;2.10;;;;;;;17.47;52.78;100539.63;5084831;28;20048;-74
2023/07/31 07:42:48;;;;;;;3.72;2.25;;;;;;;17.47;52.71;100542.38;5078817;28;20044;-74
2023/07/31 07:45:17;;;;;;;4.90;2.47;;;;;;;17.48;52.68;100546.88;5081322;28;20559;-73
2023/07/31 07:47:45;;;;;;;4.47;2.17;;;;;;;17.47;52.92;100542.38;5098558;22;20142;-72
2023/07/31 07:50:13;;;;;;;4.78;2.10;;;;;;;17.46;52.45;100548.97;5090558;28;20044;-71
2023/07/31 07:52:41;;;;;;;3.60;1.88;;;;;;;17.45;52.70;100552.75;5090898;28;20080;-71
2023/07/31 07:55:09;;;;;;;5.78;2.42;;;;;;;17.45;53.05;100541.69;5101430;28;20494;-71
2023/07/31 07:57:37;;;;;;;3.65;2.25;;;;;;;17.43;52.71;100541.88;5112134;28;20131;-71
2023/07/31 08:00:06;;;;;;;4.35;2.08;;;;;;;17.43;53.05;100539.13;5092704;28;20126;-71
2023/07/31 08:02:41;;;;;;;4.25;2.00;;;;;;;17.43;52.86;100533.59;5111228;28;20051;-71
2023/07/31 08:05:09;;;;;;;6.15;2.40;;;;;;;17.40;53.05;100533.97;5099437;28;20512;-71
2023/07/31 08:07:37;;;;;;;4.70;2.08;;;;;;;17.40;53.11;100536.75;5077632;28;20059;-71
2023/07/31 08:10:06;;;;;;;5.18;2.15;;;;;;;17.40;52.69;100531.22;5090382;28;20048;-71
2023/07/31 08:12:34;;;;;;;4.50;2.05;;;;;;;17.37;52.77;100528.81;5092865;28;20123;-71
2023/07/31 08:15:02;;;;;;;4.20;2.22;;;;;;;17.35;53.21;100528.97;5110067;28;20666;-71
2023/07/31 08:17:30;;;;;;;4.05;2.00;;;;;;;17.34;53.09;100520.88;5111452;28;20520;-71
2023/07/31 08:19:59;;;;;;;3.95;2.05;;;;;;;17.34;52.84;100518.09;5111346;28;20409;-71
2023/07/31 08:22:27;;;;;;;3.35;2.03;;;;;;;17.32;52.93;100515.50;5092712;28;20597;-70
2023/07/31 08:24:55;;;;;;;3.35;1.83;;;;;;;17.33;53.11;100513.59;5110928;28;20321;-71
2023/07/31 08:27:23;;;;;;;3.78;1.90;;;;;;;17.33;53.21;100510.84;5092572;28;20134;-71
2023/07/31 08:29:53;;;;;;;4.05;2.10;;;;;;;17.33;52.90;100500.63;5111708;28;20047;-71
2023/07/31 08:32:20;;;;;;;3.90;2.08;;;;;;;17.33;53.22;100508.06;5111099;28;20040;-71
2023/07/31 08:34:49;;;;;;;2.88;1.65;;;;;;;17.32;53.02;100498.06;5089255;28;20131;-71
2023/07/31 08:37:18;;;;;;;5.22;2.20;;;;;;;17.33;53.02;100495.09;5090644;28;20044;-71
2023/07/31 08:39:46;;;;;;;4.30;2.00;;;;;;;17.31;52.68;100500.00;5094038;28;20126;-71
2023/07/31 08:42:14;;;;;;;3.78;2.00;;;;;;;17.32;52.91;100501.69;5105122;28;20448;-71
2023/07/31 08:44:43;;;;;;;3.97;1.98;;;;;;;17.34;53.18;100502.38;5089996;28;20119;-71
2023/07/31 08:47:11;;;;;;;4.03;1.90;;;;;;;17.34;53.35;100501.50;5110360;28;20040;-72
2023/07/31 08:49:40;;;;;;;4.47;2.25;;;;;;;17.35;53.23;100504.09;5092026;28;20040;-72
2023/07/31 08:52:08;;;;;;;4.22;2.30;;;;;;;17.34;53.27;100496.84;5110538;28;20119;-72
2023/07/31 08:54:38;;;;;;;3.80;2.00;;;;;;;17.36;52.97;100500.28;5110426;28;20044;-71
2023/07/31 08:57:08;;;;;;;4.70;2.00;;;;;;;17.36;53.21;100497.50;5111140;28;20557;-71
2023/07/31 08:59:36;;;;;;;6.47;2.17;;;;;;;17.35;52.91;100495.78;5110462;28;20081;-71
2023/07/31 09:02:08;;;;;;;3.97;1.98;;;;;;;17.37;53.23;100507.53;5110018;28;20563;-72
2023/07/31 09:04:36;;;;;;;5.13;1.95;;;;;;;17.34;53.36;100504.28;5091464;28;20039;-71
2023/07/31 09:07:05;;;;;;;4.10;1.70;;;;;;;17.37;53.02;100490.94;5110286;28;20071;-72
2023/07/31 09:09:33;;;;;;;4.25;2.10;;;;;;;17.35;52.92;100498.56;5102265;28;20056;-72
2023/07/31 09:12:04;;;;;;;3.45;2.08;;;;;;;17.37;53.09;100507.53;5110766;28;20047;-71
2023/07/31 09:14:33;;;;;;;3.63;1.88;;;;;;;17.36;53.15;100511.34;5091694;28;20463;-71
2023/07/31 09:17:01;;;;;;;4.22;1.92;;;;;;;17.35;53.40;100504.09;5110194;28;20132;-71
2023/07/31 09:19:30;;;;;;;4.20;1.80;;;;;;;17.36;52.94;100503.03;5109735;28;20043;-71
2023/07/31 09:21:58;;;;;;;4.28;2.10;;;;;;;17.35;53.55;100500.47;5091019;28;20146;-71
2023/07/31 09:24:27;;;;;;;4.00;2.05;;;;;;;17.35;53.65;100487.50;5109897;28;20051;-71
2023/07/31 09:26:56;;;;;;;3.90;1.92;;;;;;;17.36;53.51;100493.88;5110164;28;20051;-71
2023/07/31 09:29:26;;;;;;;3.20;1.90;;;;;;;17.37;53.64;100488.16;5109898;28;20035;-71
2023/07/31 09:31:55;;;;;;;3.35;2.20;;;;;;;17.36;53.47;100497.50;5109550;28;20084;-71
2023/07/31 09:34:31;;;;;;;5.53;2.00;;;;;;;17.40;54.16;100489.72;5109002;28;20044;-71
2023/07/31 09:37:03;;;;;;;3.95;1.75;;;;;;;17.40;53.62;100495.25;5109972;28;20039;-71
2023/07/31 09:39:31;;;;;;;4.07;1.80;;;;;;;17.35;54.02;100484.72;5109690;28;20126;-71
2023/07/31 09:41:59;;;;;;;4.32;1.88;;;;;;;17.36;53.47;100483.69;5109520;28;20039;-71
2023/07/31 09:44:43;;;;;;;3.80;2.00;;;;;;;17.37;54.48;100474.34;5109045;28;20054;-71
2023/07/31 09:47:24;;;;;;;4.13;2.15;;;;;;;17.37;54.27;100473.47;5107212;28;20089;-71
2023/07/31 09:49:53;;;;;;;5.43;2.25;;;;;;;17.35;53.85;100475.56;5109233;28;20050;-70
2023/07/31 09:52:21;;;;;;;3.42;2.00;;;;;;;17.35;54.35;100481.97;5109138;28;20040;-71
2023/07/31 09:54:49;;;;;;;4.45;2.20;;;;;;;17.35;54.43;100487.50;5108708;28;20040;-71
2023/07/31 09:57:19;;;;;;;3.85;1.75;;;;;;;17.36;54.36;100471.75;5109634;28;20498;-71
2023/07/31 09:59:49;;;;;;;4.47;1.88;;;;;;;17.36;54.08;100467.09;5108884;28;20463;-71
2023/07/31 10:02:23;;;;;;;3.25;1.90;;;;;;;17.36;54.43;100478.16;5109223;28;20036;-71
2023/07/31 10:04:52;;;;;;;3.33;1.80;;;;;;;17.34;54.07;100466.41;5104221;28;20159;-71
2023/07/31 10:07:24;;;;;;;4.03;1.60;;;;;;;17.36;54.10;100469.00;5096213;28;20514;-71
2023/07/31 10:09:54;;;;;;;3.27;1.80;;;;;;;17.32;54.59;100462.97;5089807;28;20039;-70
2023/07/31 10:12:26;;;;;;;3.03;1.55;;;;;;;17.36;54.29;100461.56;5108718;28;20051;-71
2023/07/31 10:14:56;;;;;;;3.70;2.10;;;;;;;17.34;54.26;100471.94;5109727;28;20039;-71
2023/07/31 10:17:24;;;;;;;3.58;2.10;;;;;;;17.34;54.53;100465.53;5108440;28;20286;-71
2023/07/31 10:19:53;;;;;;;3.47;2.00;;;;;;;17.34;54.72;100463.63;5108923;28;20044;-71
2023/07/31 10:22:22;;;;;;;3.92;1.88;;;;;;;17.36;54.67;100474.53;5109039;28;20059;-71
2023/07/31 10:24:51;;;;;;;4.15;2.10;;;;;;;17.37;54.46;100474.34;5105836;28;20039;-71
2023/07/31 10:27:19;;;;;;;3.30;1.92;;;;;;;17.35;55.00;100464.50;5108416;28;20490;-71
2023/07/31 10:29:49;;;;;;;4.72;2.33;;;;;;;17.36;54.83;100467.09;5109025;28;20047;-71
2023/07/31 10:32:19;;;;;;;4.40;2.10;;;;;;;17.38;55.10;100465.00;5108738;28;20043;-71
2023/07/31 10:34:49;;;;;;;3.47;2.00;;;;;;;17.39;55.16;100461.19;5108525;28;20088;-71
2023/07/31 10:37:25;;;;;;;3.70;1.92;;;;;;;17.42;55.85;100459.94;5108055;28;20119;-72
2023/07/31 10:39:57;;;;;;;4.78;2.10;;;;;;;17.43;55.46;100449.72;5108659;28;20081;-71
2023/07/31 10:42:30;;;;;;;3.85;2.03;;;;;;;17.43;56.00;100450.59;5108671;28;20113;-71
2023/07/31 10:44:58;;;;;;;;;;;;;;;17.17;56.33;100458.44;5096781;28;20047;-71
2023/07/31 10:47:28;;;;;;;4.28;1.90;;;;;;;17.45;55.72;100448.50;5085541;28;19924;-71
2023/07/31 10:50:14;;;;;;;3.13;1.67;;;;;;;17.52;56.40;100445.81;5103714;28;20063;-72
2023/07/31 10:52:45;;;;;;;3.88;2.20;;;;;;;17.57;55.55;100443.34;5085856;28;20464;-72
2023/07/31 10:55:41;;;;;;;4.22;2.10;;;;;;;17.58;55.76;100451.44;5103488;28;20839;-73
2023/07/31 10:58:10;;;;;;;3.78;1.90;;;;;;;17.64;55.74;100447.09;5065305;28;20047;-73
2023/07/31 11:00:42;;;;;;;4.13;2.30;;;;;;;17.68;55.43;100446.50;5086318;28;20067;-73
2023/07/31 11:03:14;;;;;;;3.42;2.03;;;;;;;17.72;55.18;100453.38;5101609;28;20499;-73
2023/07/31 11:05:51;;;;;;;3.10;1.65;;;;;;;17.75;54.93;100438.31;5083613;28;20102;-73
2023/07/31 11:08:20;;;;;;;4.60;2.10;;;;;;;17.78;54.66;100443.47;5101327;28;20551;-73
2023/07/31 11:10:51;;;;;;;3.95;2.30;;;;;;;17.81;54.68;100437.56;5102885;28;20043;-73
2023/07/31 11:13:19;;;;;;;3.58;1.75;;;;;;;17.82;54.23;100435.63;5102336;28;20038;-74
2023/07/31 11:15:47;;;;;;;3.47;1.40;;;;;;;17.83;54.39;100438.22;5104977;28;20066;-73
2023/07/31 11:18:16;;;;;;;4.07;1.70;;;;;;;17.86;54.55;100437.84;5104610;28;20036;-74
2023/07/31 11:20:45;;;;;;;2.45;1.40;;;;;;;17.86;54.39;100432.31;5104410;28;20163;-73
2023/07/31 11:23:13;;;;;;;3.22;1.30;;;;;;;17.86;54.14;100439.75;5096874;28;20124;-73
2023/07/31 11:25:41;;;;;;;3.33;1.67;;;;;;;17.88;54.37;100441.28;5083678;28;20040;-73
2023/07/31 11:28:11;;;;;;;2.78;1.30;;;;;;;17.92;54.49;100433.44;5104889;28;20040;-73
2023/07/31 11:30:40;;;;;;;2.30;1.00;;;;;;;17.93;54.56;100443.47;5082631;28;20046;-73
2023/07/31 11:33:10;;;;;;;3.10;1.20;;;;;;;17.96;54.21;100440.31;5088827;28;20046;-73